sensor_id;sensor_type;location;lat;lon;timestamp;P1;durP1;ratioP1;P2;durP2;ratioP2
11255;SDS011;5685;52.384;13.420;2022-08-19T00:02:21;20.43;;;18.83;;
11255;SDS011;5685;52.384;13.420;2022-08-19T00:05:23;19.93;;;18.03;;
11255;SDS011;5685;52.384;13.420;2022-08-19T00:08:25;19.67;;;17.93;;
11255;SDS011;5685;52.384;13.420;2022-08-19T00:11:31;20.67;;;18.87;;
11255;SDS011;5685;52.384;13.420;2022-08-19T00:14:34;19.43;;;17.93;;
11255;SDS011;5685;52.384;13.420;2022-08-19T00:17:36;20.00;;;18.37;;
11255;SDS011;5685;52.384;13.420;2022-08-19T00:20:39;19.07;;;17.47;;
11255;SDS011;5685;52.384;13.420;2022-08-19T00:23:42;18.70;;;17.00;;
11255;SDS011;5685;52.384;13.420;2022-08-19T00:26:45;20.03;;;18.23;;
11255;SDS011;5685;52.384;13.420;2022-08-19T00:29:48;20.23;;;18.63;;
11255;SDS011;5685;52.384;13.420;2022-08-19T00:32:50;19.60;;;17.90;;
11255;SDS011;5685;52.384;13.420;2022-08-19T00:35:55;20.70;;;18.87;;
11255;SDS011;5685;52.384;13.420;2022-08-19T00:38:57;19.60;;;17.90;;
11255;SDS011;5685;52.384;13.420;2022-08-19T00:42:01;20.90;;;19.10;;
11255;SDS011;5685;52.384;13.420;2022-08-19T00:45:05;20.83;;;19.13;;
11255;SDS011;5685;52.384;13.420;2022-08-19T00:48:12;21.33;;;19.40;;
11255;SDS011;5685;52.384;13.420;2022-08-19T00:51:16;21.43;;;19.63;;
11255;SDS011;5685;52.384;13.420;2022-08-19T00:54:18;23.33;;;19.40;;
11255;SDS011;5685;52.384;13.420;2022-08-19T00:57:24;20.83;;;19.23;;
11255;SDS011;5685;52.384;13.420;2022-08-19T01:00:31;21.67;;;19.87;;
11255;SDS011;5685;52.384;13.420;2022-08-19T01:03:36;20.57;;;18.87;;
11255;SDS011;5685;52.384;13.420;2022-08-19T01:06:39;22.33;;;20.17;;
11255;SDS011;5685;52.384;13.420;2022-08-19T01:09:42;22.07;;;20.17;;
11255;SDS011;5685;52.384;13.420;2022-08-19T01:12:46;21.33;;;19.53;;
11255;SDS011;5685;52.384;13.420;2022-08-19T01:15:50;22.13;;;20.13;;
11255;SDS011;5685;52.384;13.420;2022-08-19T01:18:56;20.53;;;18.83;;
11255;SDS011;5685;52.384;13.420;2022-08-19T01:22:00;22.43;;;20.33;;
11255;SDS011;5685;52.384;13.420;2022-08-19T01:25:09;21.97;;;19.87;;
11255;SDS011;5685;52.384;13.420;2022-08-19T01:28:18;23.20;;;21.10;;
11255;SDS011;5685;52.384;13.420;2022-08-19T01:31:27;24.27;;;21.07;;
11255;SDS011;5685;52.384;13.420;2022-08-19T01:34:31;21.13;;;19.30;;
11255;SDS011;5685;52.384;13.420;2022-08-19T01:37:41;19.97;;;18.03;;
11255;SDS011;5685;52.384;13.420;2022-08-19T01:40:47;17.97;;;16.50;;
11255;SDS011;5685;52.384;13.420;2022-08-19T01:43:50;18.63;;;17.00;;
11255;SDS011;5685;52.384;13.420;2022-08-19T01:46:53;17.77;;;16.37;;
11255;SDS011;5685;52.384;13.420;2022-08-19T01:49:55;17.60;;;16.20;;
11255;SDS011;5685;52.384;13.420;2022-08-19T01:53:00;17.27;;;15.87;;
11255;SDS011;5685;52.384;13.420;2022-08-19T01:56:06;18.63;;;17.03;;
11255;SDS011;5685;52.384;13.420;2022-08-19T01:59:10;17.43;;;16.03;;
11255;SDS011;5685;52.384;13.420;2022-08-19T02:02:17;19.40;;;17.73;;
11255;SDS011;5685;52.384;13.420;2022-08-19T02:05:20;18.20;;;16.60;;
11255;SDS011;5685;52.384;13.420;2022-08-19T02:08:22;17.50;;;16.20;;
11255;SDS011;5685;52.384;13.420;2022-08-19T02:11:27;19.20;;;17.50;;
11255;SDS011;5685;52.384;13.420;2022-08-19T02:14:33;17.67;;;16.37;;
11255;SDS011;5685;52.384;13.420;2022-08-19T02:17:36;17.23;;;15.93;;
11255;SDS011;5685;52.384;13.420;2022-08-19T02:20:39;17.63;;;16.10;;
11255;SDS011;5685;52.384;13.420;2022-08-19T02:23:43;18.57;;;17.17;;
11255;SDS011;5685;52.384;13.420;2022-08-19T02:26:47;17.10;;;15.60;;
11255;SDS011;5685;52.384;13.420;2022-08-19T02:29:49;17.20;;;15.80;;
11255;SDS011;5685;52.384;13.420;2022-08-19T02:32:52;17.97;;;16.57;;
11255;SDS011;5685;52.384;13.420;2022-08-19T02:35:55;17.07;;;15.77;;
11255;SDS011;5685;52.384;13.420;2022-08-19T02:38:57;17.67;;;16.37;;
11255;SDS011;5685;52.384;13.420;2022-08-19T02:42:01;18.13;;;16.73;;
11255;SDS011;5685;52.384;13.420;2022-08-19T02:45:03;17.53;;;16.30;;
11255;SDS011;5685;52.384;13.420;2022-08-19T02:48:06;17.83;;;16.43;;
11255;SDS011;5685;52.384;13.420;2022-08-19T02:51:15;17.07;;;15.57;;
11255;SDS011;5685;52.384;13.420;2022-08-19T02:54:18;17.07;;;15.77;;
11255;SDS011;5685;52.384;13.420;2022-08-19T02:57:22;17.67;;;16.03;;
11255;SDS011;5685;52.384;13.420;2022-08-19T03:00:24;16.83;;;15.33;;
11255;SDS011;5685;52.384;13.420;2022-08-19T03:03:27;17.80;;;16.03;;
11255;SDS011;5685;52.384;13.420;2022-08-19T03:06:30;16.53;;;15.13;;
11255;SDS011;5685;52.384;13.420;2022-08-19T03:09:33;16.87;;;15.67;;
11255;SDS011;5685;52.384;13.420;2022-08-19T03:12:40;17.03;;;15.63;;
11255;SDS011;5685;52.384;13.420;2022-08-19T03:15:43;15.93;;;14.73;;
11255;SDS011;5685;52.384;13.420;2022-08-19T03:18:47;17.30;;;15.63;;
11255;SDS011;5685;52.384;13.420;2022-08-19T03:21:51;17.07;;;15.80;;
11255;SDS011;5685;52.384;13.420;2022-08-19T03:24:53;15.77;;;14.57;;
11255;SDS011;5685;52.384;13.420;2022-08-19T03:27:57;16.67;;;15.33;;
11255;SDS011;5685;52.384;13.420;2022-08-19T03:31:00;16.90;;;15.50;;
11255;SDS011;5685;52.384;13.420;2022-08-19T03:34:06;16.63;;;15.43;;
11255;SDS011;5685;52.384;13.420;2022-08-19T03:37:10;16.23;;;14.83;;
11255;SDS011;5685;52.384;13.420;2022-08-19T03:40:13;16.40;;;15.20;;
11255;SDS011;5685;52.384;13.420;2022-08-19T03:43:17;16.43;;;15.23;;
11255;SDS011;5685;52.384;13.420;2022-08-19T03:46:21;16.50;;;15.30;;
11255;SDS011;5685;52.384;13.420;2022-08-19T03:49:28;16.17;;;14.97;;
11255;SDS011;5685;52.384;13.420;2022-08-19T03:52:35;16.53;;;14.87;;
11255;SDS011;5685;52.384;13.420;2022-08-19T03:55:39;15.67;;;14.37;;
11255;SDS011;5685;52.384;13.420;2022-08-19T03:58:43;16.27;;;14.63;;
11255;SDS011;5685;52.384;13.420;2022-08-19T04:01:46;16.80;;;15.27;;
11255;SDS011;5685;52.384;13.420;2022-08-19T04:04:48;16.00;;;14.70;;
11255;SDS011;5685;52.384;13.420;2022-08-19T04:07:54;16.03;;;14.83;;
11255;SDS011;5685;52.384;13.420;2022-08-19T04:10:58;16.27;;;14.73;;
11255;SDS011;5685;52.384;13.420;2022-08-19T04:14:02;15.57;;;14.40;;
11255;SDS011;5685;52.384;13.420;2022-08-19T04:17:04;16.37;;;15.07;;
11255;SDS011;5685;52.384;13.420;2022-08-19T04:20:07;16.07;;;14.77;;
11255;SDS011;5685;52.384;13.420;2022-08-19T04:23:10;15.80;;;14.43;;
11255;SDS011;5685;52.384;13.420;2022-08-19T04:26:13;15.80;;;14.70;;
11255;SDS011;5685;52.384;13.420;2022-08-19T04:29:19;14.70;;;13.60;;
11255;SDS011;5685;52.384;13.420;2022-08-19T04:32:24;16.37;;;15.07;;
11255;SDS011;5685;52.384;13.420;2022-08-19T04:35:27;15.33;;;14.20;;
11255;SDS011;5685;52.384;13.420;2022-08-19T04:38:29;16.53;;;15.37;;
11255;SDS011;5685;52.384;13.420;2022-08-19T04:41:31;15.73;;;14.53;;
11255;SDS011;5685;52.384;13.420;2022-08-19T04:44:53;16.23;;;15.00;;
11255;SDS011;5685;52.384;13.420;2022-08-19T04:47:56;16.83;;;15.53;;
11255;SDS011;5685;52.384;13.420;2022-08-19T04:50:59;16.70;;;15.37;;
11255;SDS011;5685;52.384;13.420;2022-08-19T04:54:03;15.53;;;14.27;;
11255;SDS011;5685;52.384;13.420;2022-08-19T04:57:05;15.77;;;14.57;;
11255;SDS011;5685;52.384;13.420;2022-08-19T05:00:11;15.53;;;14.40;;
11255;SDS011;5685;52.384;13.420;2022-08-19T05:03:14;16.40;;;15.00;;
11255;SDS011;5685;52.384;13.420;2022-08-19T05:06:18;15.87;;;14.67;;
11255;SDS011;5685;52.384;13.420;2022-08-19T05:09:22;16.50;;;15.23;;
11255;SDS011;5685;52.384;13.420;2022-08-19T05:12:25;15.50;;;14.40;;
11255;SDS011;5685;52.384;13.420;2022-08-19T05:15:30;15.93;;;14.63;;
11255;SDS011;5685;52.384;13.420;2022-08-19T05:18:32;15.60;;;14.50;;
11255;SDS011;5685;52.384;13.420;2022-08-19T05:21:52;15.90;;;14.40;;
11255;SDS011;5685;52.384;13.420;2022-08-19T05:25:13;16.27;;;15.17;;
11255;SDS011;5685;52.384;13.420;2022-08-19T05:28:19;16.50;;;15.10;;
11255;SDS011;5685;52.384;13.420;2022-08-19T05:31:23;16.93;;;15.73;;
11255;SDS011;5685;52.384;13.420;2022-08-19T05:34:25;16.20;;;15.00;;
11255;SDS011;5685;52.384;13.420;2022-08-19T05:37:28;16.23;;;15.10;;
11255;SDS011;5685;52.384;13.420;2022-08-19T05:40:31;16.70;;;15.50;;
11255;SDS011;5685;52.384;13.420;2022-08-19T05:43:36;18.00;;;16.60;;
11255;SDS011;5685;52.384;13.420;2022-08-19T05:46:41;18.60;;;17.00;;
11255;SDS011;5685;52.384;13.420;2022-08-19T05:49:47;19.03;;;17.50;;
11255;SDS011;5685;52.384;13.420;2022-08-19T05:52:51;19.70;;;18.17;;
11255;SDS011;5685;52.384;13.420;2022-08-19T05:55:53;19.90;;;18.27;;
11255;SDS011;5685;52.384;13.420;2022-08-19T05:58:55;20.27;;;18.27;;
11255;SDS011;5685;52.384;13.420;2022-08-19T06:01:59;25.63;;;19.77;;
11255;SDS011;5685;52.384;13.420;2022-08-19T06:05:02;20.37;;;18.43;;
11255;SDS011;5685;52.384;13.420;2022-08-19T06:08:08;19.80;;;18.13;;
11255;SDS011;5685;52.384;13.420;2022-08-19T06:11:12;21.07;;;18.93;;
11255;SDS011;5685;52.384;13.420;2022-08-19T06:14:19;20.87;;;18.87;;
11255;SDS011;5685;52.384;13.420;2022-08-19T06:17:24;21.70;;;19.63;;
11255;SDS011;5685;52.384;13.420;2022-08-19T06:20:27;20.57;;;18.93;;
11255;SDS011;5685;52.384;13.420;2022-08-19T06:23:29;22.53;;;18.47;;
11255;SDS011;5685;52.384;13.420;2022-08-19T06:26:32;20.63;;;18.93;;
11255;SDS011;5685;52.384;13.420;2022-08-19T06:29:36;21.10;;;19.10;;
11255;SDS011;5685;52.384;13.420;2022-08-19T06:32:41;22.10;;;19.77;;
11255;SDS011;5685;52.384;13.420;2022-08-19T06:35:44;23.47;;;19.77;;
11255;SDS011;5685;52.384;13.420;2022-08-19T06:38:46;20.77;;;19.03;;
11255;SDS011;5685;52.384;13.420;2022-08-19T06:41:49;21.20;;;19.50;;
11255;SDS011;5685;52.384;13.420;2022-08-19T06:44:53;21.57;;;19.47;;
11255;SDS011;5685;52.384;13.420;2022-08-19T06:47:57;22.40;;;20.17;;
11255;SDS011;5685;52.384;13.420;2022-08-19T06:50:59;22.20;;;20.00;;
11255;SDS011;5685;52.384;13.420;2022-08-19T06:54:03;23.27;;;21.37;;
11255;SDS011;5685;52.384;13.420;2022-08-19T06:57:06;22.43;;;20.30;;
11255;SDS011;5685;52.384;13.420;2022-08-19T07:00:15;22.13;;;19.83;;
11255;SDS011;5685;52.384;13.420;2022-08-19T07:03:19;22.97;;;21.07;;
11255;SDS011;5685;52.384;13.420;2022-08-19T07:06:21;23.07;;;20.80;;
11255;SDS011;5685;52.384;13.420;2022-08-19T07:09:23;22.70;;;20.77;;
11255;SDS011;5685;52.384;13.420;2022-08-19T07:12:26;21.63;;;19.93;;
11255;SDS011;5685;52.384;13.420;2022-08-19T07:15:31;23.07;;;20.77;;
11255;SDS011;5685;52.384;13.420;2022-08-19T07:18:35;23.10;;;21.03;;
11255;SDS011;5685;52.384;13.420;2022-08-19T07:21:39;23.03;;;21.03;;
11255;SDS011;5685;52.384;13.420;2022-08-19T07:24:41;21.23;;;19.23;;
11255;SDS011;5685;52.384;13.420;2022-08-19T07:27:43;22.30;;;20.30;;
11255;SDS011;5685;52.384;13.420;2022-08-19T07:30:45;23.43;;;21.33;;
11255;SDS011;5685;52.384;13.420;2022-08-19T07:33:50;23.93;;;21.87;;
11255;SDS011;5685;52.384;13.420;2022-08-19T07:36:55;22.87;;;20.87;;
11255;SDS011;5685;52.384;13.420;2022-08-19T07:39:57;22.80;;;20.57;;
11255;SDS011;5685;52.384;13.420;2022-08-19T07:43:00;23.63;;;21.57;;
11255;SDS011;5685;52.384;13.420;2022-08-19T07:46:02;23.63;;;21.43;;
11255;SDS011;5685;52.384;13.420;2022-08-19T07:49:06;23.20;;;21.07;;
11255;SDS011;5685;52.384;13.420;2022-08-19T07:52:18;23.37;;;21.20;;
11255;SDS011;5685;52.384;13.420;2022-08-19T07:55:21;22.27;;;20.27;;
11255;SDS011;5685;52.384;13.420;2022-08-19T07:58:26;24.03;;;21.53;;
11255;SDS011;5685;52.384;13.420;2022-08-19T08:01:28;25.03;;;22.83;;
11255;SDS011;5685;52.384;13.420;2022-08-19T08:04:32;23.23;;;21.30;;
11255;SDS011;5685;52.384;13.420;2022-08-19T08:07:52;25.43;;;23.10;;
11255;SDS011;5685;52.384;13.420;2022-08-19T08:11:12;25.70;;;23.47;;
11255;SDS011;5685;52.384;13.420;2022-08-19T08:14:16;24.60;;;22.30;;
11255;SDS011;5685;52.384;13.420;2022-08-19T08:17:21;24.07;;;21.73;;
11255;SDS011;5685;52.384;13.420;2022-08-19T08:20:27;25.13;;;22.73;;
11255;SDS011;5685;52.384;13.420;2022-08-19T08:23:29;26.07;;;23.47;;
11255;SDS011;5685;52.384;13.420;2022-08-19T08:26:31;25.23;;;22.97;;
11255;SDS011;5685;52.384;13.420;2022-08-19T08:29:33;25.03;;;22.73;;
11255;SDS011;5685;52.384;13.420;2022-08-19T08:32:36;25.93;;;23.57;;
11255;SDS011;5685;52.384;13.420;2022-08-19T08:35:41;26.83;;;24.43;;
11255;SDS011;5685;52.384;13.420;2022-08-19T08:38:45;26.70;;;24.20;;
11255;SDS011;5685;52.384;13.420;2022-08-19T08:41:51;24.57;;;22.33;;
11255;SDS011;5685;52.384;13.420;2022-08-19T08:45:00;25.13;;;22.83;;
11255;SDS011;5685;52.384;13.420;2022-08-19T08:48:16;24.73;;;22.33;;
11255;SDS011;5685;52.384;13.420;2022-08-19T08:51:27;26.90;;;24.13;;
11255;SDS011;5685;52.384;13.420;2022-08-19T08:54:37;25.83;;;23.43;;
11255;SDS011;5685;52.384;13.420;2022-08-19T08:57:49;26.77;;;24.00;;
11255;SDS011;5685;52.384;13.420;2022-08-19T09:00:56;27.37;;;24.60;;
11255;SDS011;5685;52.384;13.420;2022-08-19T09:03:59;28.03;;;25.20;;
11255;SDS011;5685;52.384;13.420;2022-08-19T09:07:16;28.83;;;25.90;;
11255;SDS011;5685;52.384;13.420;2022-08-19T09:10:34;27.53;;;24.93;;
11255;SDS011;5685;52.384;13.420;2022-08-19T09:13:43;27.30;;;24.33;;
11255;SDS011;5685;52.384;13.420;2022-08-19T09:16:57;28.63;;;25.87;;
11255;SDS011;5685;52.384;13.420;2022-08-19T09:20:04;28.00;;;25.13;;
11255;SDS011;5685;52.384;13.420;2022-08-19T09:23:16;29.40;;;26.40;;
11255;SDS011;5685;52.384;13.420;2022-08-19T09:26:20;27.83;;;25.33;;
11255;SDS011;5685;52.384;13.420;2022-08-19T09:29:24;28.80;;;26.23;;
11255;SDS011;5685;52.384;13.420;2022-08-19T09:32:27;30.07;;;27.30;;
11255;SDS011;5685;52.384;13.420;2022-08-19T09:35:30;30.07;;;27.13;;
11255;SDS011;5685;52.384;13.420;2022-08-19T09:38:35;29.43;;;26.50;;
11255;SDS011;5685;52.384;13.420;2022-08-19T09:41:41;29.63;;;26.90;;
11255;SDS011;5685;52.384;13.420;2022-08-19T09:44:43;28.97;;;26.07;;
11255;SDS011;5685;52.384;13.420;2022-08-19T09:47:46;30.27;;;27.47;;
11255;SDS011;5685;52.384;13.420;2022-08-19T09:50:50;29.67;;;26.87;;
11255;SDS011;5685;52.384;13.420;2022-08-19T09:53:55;30.63;;;27.27;;
11255;SDS011;5685;52.384;13.420;2022-08-19T09:57:02;30.13;;;27.07;;
11255;SDS011;5685;52.384;13.420;2022-08-19T10:00:06;30.47;;;27.43;;
11255;SDS011;5685;52.384;13.420;2022-08-19T10:03:10;31.67;;;28.43;;
11255;SDS011;5685;52.384;13.420;2022-08-19T10:06:12;30.03;;;26.83;;
11255;SDS011;5685;52.384;13.420;2022-08-19T10:09:17;29.60;;;26.90;;
11255;SDS011;5685;52.384;13.420;2022-08-19T10:12:19;30.17;;;27.07;;
11255;SDS011;5685;52.384;13.420;2022-08-19T10:15:22;30.33;;;27.40;;
11255;SDS011;5685;52.384;13.420;2022-08-19T10:18:24;27.67;;;25.07;;
11255;SDS011;5685;52.384;13.420;2022-08-19T10:21:27;29.77;;;26.87;;
11255;SDS011;5685;52.384;13.420;2022-08-19T10:24:33;27.70;;;25.20;;
11255;SDS011;5685;52.384;13.420;2022-08-19T10:27:36;27.30;;;24.87;;
11255;SDS011;5685;52.384;13.420;2022-08-19T10:30:39;27.33;;;24.70;;
11255;SDS011;5685;52.384;13.420;2022-08-19T10:33:42;27.93;;;25.33;;
11255;SDS011;5685;52.384;13.420;2022-08-19T10:36:45;25.17;;;22.67;;
11255;SDS011;5685;52.384;13.420;2022-08-19T10:39:49;26.20;;;23.60;;
11255;SDS011;5685;52.384;13.420;2022-08-19T10:42:52;25.93;;;23.37;;
11255;SDS011;5685;52.384;13.420;2022-08-19T10:45:55;26.60;;;24.07;;
11255;SDS011;5685;52.384;13.420;2022-08-19T10:48:59;25.97;;;23.47;;
11255;SDS011;5685;52.384;13.420;2022-08-19T10:52:02;25.10;;;22.87;;
11255;SDS011;5685;52.384;13.420;2022-08-19T10:55:24;24.17;;;22.03;;
11255;SDS011;5685;52.384;13.420;2022-08-19T10:58:44;24.03;;;22.03;;
11255;SDS011;5685;52.384;13.420;2022-08-19T11:01:47;24.47;;;22.30;;
11255;SDS011;5685;52.384;13.420;2022-08-19T11:04:50;25.23;;;22.97;;
11255;SDS011;5685;52.384;13.420;2022-08-19T11:07:52;25.13;;;22.83;;
11255;SDS011;5685;52.384;13.420;2022-08-19T11:10:58;24.80;;;22.57;;
11255;SDS011;5685;52.384;13.420;2022-08-19T11:14:03;24.43;;;22.23;;
11255;SDS011;5685;52.384;13.420;2022-08-19T11:17:05;25.47;;;23.20;;
11255;SDS011;5685;52.384;13.420;2022-08-19T11:20:08;25.17;;;22.93;;
11255;SDS011;5685;52.384;13.420;2022-08-19T11:23:12;22.83;;;20.80;;
11255;SDS011;5685;52.384;13.420;2022-08-19T11:26:15;23.70;;;21.57;;
11255;SDS011;5685;52.384;13.420;2022-08-19T11:29:20;23.73;;;21.63;;
11255;SDS011;5685;52.384;13.420;2022-08-19T11:32:26;23.57;;;21.37;;
11255;SDS011;5685;52.384;13.420;2022-08-19T11:35:28;26.83;;;21.90;;
11255;SDS011;5685;52.384;13.420;2022-08-19T11:38:30;24.33;;;22.13;;
11255;SDS011;5685;52.384;13.420;2022-08-19T11:41:35;24.33;;;22.07;;
11255;SDS011;5685;52.384;13.420;2022-08-19T11:44:37;23.00;;;20.87;;
11255;SDS011;5685;52.384;13.420;2022-08-19T11:47:40;23.60;;;21.17;;
11255;SDS011;5685;52.384;13.420;2022-08-19T11:50:42;23.00;;;21.10;;
11255;SDS011;5685;52.384;13.420;2022-08-19T11:53:44;22.50;;;20.60;;
11255;SDS011;5685;52.384;13.420;2022-08-19T11:56:48;23.33;;;21.17;;
11255;SDS011;5685;52.384;13.420;2022-08-19T11:59:51;23.63;;;21.53;;
11255;SDS011;5685;52.384;13.420;2022-08-19T12:02:53;23.37;;;21.17;;
11255;SDS011;5685;52.384;13.420;2022-08-19T12:05:56;22.90;;;20.60;;
11255;SDS011;5685;52.384;13.420;2022-08-19T12:08:58;22.50;;;20.60;;
11255;SDS011;5685;52.384;13.420;2022-08-19T12:12:07;22.50;;;20.47;;
11255;SDS011;5685;52.384;13.420;2022-08-19T12:15:10;21.63;;;19.57;;
11255;SDS011;5685;52.384;13.420;2022-08-19T12:18:14;21.40;;;19.57;;
11255;SDS011;5685;52.384;13.420;2022-08-19T12:21:18;21.20;;;19.50;;
11255;SDS011;5685;52.384;13.420;2022-08-19T12:24:30;22.13;;;20.07;;
11255;SDS011;5685;52.384;13.420;2022-08-19T12:27:35;21.43;;;19.63;;
11255;SDS011;5685;52.384;13.420;2022-08-19T12:30:37;21.23;;;19.43;;
11255;SDS011;5685;52.384;13.420;2022-08-19T12:33:40;21.33;;;19.40;;
11255;SDS011;5685;52.384;13.420;2022-08-19T12:36:43;18.50;;;17.00;;
11255;SDS011;5685;52.384;13.420;2022-08-19T12:39:45;20.57;;;18.83;;
11255;SDS011;5685;52.384;13.420;2022-08-19T12:42:49;21.23;;;19.50;;
11255;SDS011;5685;52.384;13.420;2022-08-19T12:45:51;21.07;;;19.17;;
11255;SDS011;5685;52.384;13.420;2022-08-19T12:48:53;20.53;;;18.70;;
11255;SDS011;5685;52.384;13.420;2022-08-19T12:51:56;20.33;;;18.63;;
11255;SDS011;5685;52.384;13.420;2022-08-19T12:54:58;19.10;;;17.60;;
11255;SDS011;5685;52.384;13.420;2022-08-19T12:58:02;19.47;;;17.67;;
11255;SDS011;5685;52.384;13.420;2022-08-19T13:01:08;20.50;;;18.97;;
11255;SDS011;5685;52.384;13.420;2022-08-19T13:04:12;18.90;;;17.40;;
11255;SDS011;5685;52.384;13.420;2022-08-19T13:07:15;19.90;;;18.30;;
11255;SDS011;5685;52.384;13.420;2022-08-19T13:10:18;20.07;;;18.37;;
11255;SDS011;5685;52.384;13.420;2022-08-19T13:13:23;19.30;;;17.77;;
11255;SDS011;5685;52.384;13.420;2022-08-19T13:16:26;19.87;;;18.37;;
11255;SDS011;5685;52.384;13.420;2022-08-19T13:19:30;18.90;;;17.40;;
11255;SDS011;5685;52.384;13.420;2022-08-19T13:22:32;18.47;;;17.07;;
11255;SDS011;5685;52.384;13.420;2022-08-19T13:25:35;19.43;;;17.77;;
11255;SDS011;5685;52.384;13.420;2022-08-19T13:28:39;19.27;;;17.47;;
11255;SDS011;5685;52.384;13.420;2022-08-19T13:32:00;18.10;;;16.60;;
11255;SDS011;5685;52.384;13.420;2022-08-19T13:35:20;19.27;;;17.70;;
11255;SDS011;5685;52.384;13.420;2022-08-19T13:38:23;18.40;;;16.80;;
11255;SDS011;5685;52.384;13.420;2022-08-19T13:41:25;18.03;;;16.60;;
11255;SDS011;5685;52.384;13.420;2022-08-19T13:44:30;18.80;;;17.40;;
11255;SDS011;5685;52.384;13.420;2022-08-19T13:47:33;18.57;;;17.07;;
11255;SDS011;5685;52.384;13.420;2022-08-19T13:50:43;19.53;;;17.90;;
11255;SDS011;5685;52.384;13.420;2022-08-19T13:53:48;18.43;;;16.93;;
11255;SDS011;5685;52.384;13.420;2022-08-19T13:56:50;18.70;;;17.10;;
11255;SDS011;5685;52.384;13.420;2022-08-19T13:59:54;18.70;;;17.10;;
11255;SDS011;5685;52.384;13.420;2022-08-19T14:02:56;19.37;;;17.73;;
11255;SDS011;5685;52.384;13.420;2022-08-19T14:05:59;20.00;;;18.30;;
11255;SDS011;5685;52.384;13.420;2022-08-19T14:09:02;20.20;;;18.53;;
11255;SDS011;5685;52.384;13.420;2022-08-19T14:12:05;20.13;;;18.53;;
11255;SDS011;5685;52.384;13.420;2022-08-19T14:15:10;20.43;;;18.83;;
11255;SDS011;5685;52.384;13.420;2022-08-19T14:18:14;19.70;;;18.10;;
11255;SDS011;5685;52.384;13.420;2022-08-19T14:21:19;18.73;;;17.13;;
11255;SDS011;5685;52.384;13.420;2022-08-19T14:24:23;18.80;;;17.40;;
11255;SDS011;5685;52.384;13.420;2022-08-19T14:27:25;19.87;;;18.27;;
11255;SDS011;5685;52.384;13.420;2022-08-19T14:30:30;18.77;;;17.27;;
11255;SDS011;5685;52.384;13.420;2022-08-19T14:33:36;20.93;;;19.03;;
11255;SDS011;5685;52.384;13.420;2022-08-19T14:36:40;21.73;;;19.73;;
11255;SDS011;5685;52.384;13.420;2022-08-19T14:39:43;19.40;;;17.90;;
11255;SDS011;5685;52.384;13.420;2022-08-19T14:42:45;21.13;;;19.33;;
11255;SDS011;5685;52.384;13.420;2022-08-19T14:45:49;19.23;;;17.70;;
11255;SDS011;5685;52.384;13.420;2022-08-19T14:48:52;18.57;;;17.07;;
11255;SDS011;5685;52.384;13.420;2022-08-19T14:51:54;20.57;;;18.80;;
11255;SDS011;5685;52.384;13.420;2022-08-19T14:54:57;20.17;;;18.53;;
11255;SDS011;5685;52.384;13.420;2022-08-19T14:57:59;19.03;;;17.53;;
11255;SDS011;5685;52.384;13.420;2022-08-19T15:01:04;19.70;;;17.90;;
11255;SDS011;5685;52.384;13.420;2022-08-19T15:04:06;19.30;;;17.70;;
11255;SDS011;5685;52.384;13.420;2022-08-19T15:07:09;20.13;;;18.50;;
11255;SDS011;5685;52.384;13.420;2022-08-19T15:10:11;18.10;;;16.73;;
11255;SDS011;5685;52.384;13.420;2022-08-19T15:13:16;18.87;;;17.37;;
11255;SDS011;5685;52.384;13.420;2022-08-19T15:16:20;19.43;;;17.93;;
11255;SDS011;5685;52.384;13.420;2022-08-19T15:19:24;19.20;;;17.70;;
11255;SDS011;5685;52.384;13.420;2022-08-19T15:22:27;19.63;;;17.50;;
11255;SDS011;5685;52.384;13.420;2022-08-19T15:25:29;18.43;;;16.93;;
11255;SDS011;5685;52.384;13.420;2022-08-19T15:28:32;18.90;;;17.27;;
11255;SDS011;5685;52.384;13.420;2022-08-19T15:31:37;19.50;;;17.90;;
11255;SDS011;5685;52.384;13.420;2022-08-19T15:34:39;20.67;;;18.73;;
11255;SDS011;5685;52.384;13.420;2022-08-19T15:37:41;21.90;;;19.60;;
11255;SDS011;5685;52.384;13.420;2022-08-19T15:40:45;21.50;;;19.67;;
11255;SDS011;5685;52.384;13.420;2022-08-19T15:43:48;22.00;;;19.90;;
11255;SDS011;5685;52.384;13.420;2022-08-19T15:46:53;21.03;;;19.03;;
11255;SDS011;5685;52.384;13.420;2022-08-19T15:49:56;19.77;;;18.00;;
11255;SDS011;5685;52.384;13.420;2022-08-19T15:53:00;20.37;;;18.53;;
11255;SDS011;5685;52.384;13.420;2022-08-19T15:56:05;21.00;;;19.20;;
11255;SDS011;5685;52.384;13.420;2022-08-19T15:59:08;21.13;;;19.33;;
11255;SDS011;5685;52.384;13.420;2022-08-19T16:02:29;18.60;;;17.07;;
11255;SDS011;5685;52.384;13.420;2022-08-19T16:05:49;18.77;;;17.37;;
11255;SDS011;5685;52.384;13.420;2022-08-19T16:09:09;18.93;;;17.33;;
11255;SDS011;5685;52.384;13.420;2022-08-19T16:12:12;18.83;;;17.33;;
11255;SDS011;5685;52.384;13.420;2022-08-19T16:15:15;18.13;;;16.73;;
11255;SDS011;5685;52.384;13.420;2022-08-19T16:18:21;18.30;;;16.90;;
11255;SDS011;5685;52.384;13.420;2022-08-19T16:21:26;18.97;;;17.47;;
11255;SDS011;5685;52.384;13.420;2022-08-19T16:24:32;17.87;;;16.47;;
11255;SDS011;5685;52.384;13.420;2022-08-19T16:27:34;17.83;;;16.53;;
11255;SDS011;5685;52.384;13.420;2022-08-19T16:30:37;18.70;;;17.23;;
11255;SDS011;5685;52.384;13.420;2022-08-19T16:33:43;19.10;;;17.67;;
11255;SDS011;5685;52.384;13.420;2022-08-19T16:36:45;19.00;;;17.30;;
11255;SDS011;5685;52.384;13.420;2022-08-19T16:39:47;18.10;;;16.70;;
11255;SDS011;5685;52.384;13.420;2022-08-19T16:42:50;17.90;;;16.47;;
11255;SDS011;5685;52.384;13.420;2022-08-19T16:45:52;17.20;;;15.90;;
11255;SDS011;5685;52.384;13.420;2022-08-19T16:48:58;17.03;;;15.77;;
11255;SDS011;5685;52.384;13.420;2022-08-19T16:52:00;17.80;;;16.40;;
11255;SDS011;5685;52.384;13.420;2022-08-19T16:55:05;17.37;;;16.07;;
11255;SDS011;5685;52.384;13.420;2022-08-19T16:58:08;17.67;;;16.27;;
11255;SDS011;5685;52.384;13.420;2022-08-19T17:01:10;16.00;;;14.90;;
11255;SDS011;5685;52.384;13.420;2022-08-19T17:04:14;16.00;;;14.87;;
11255;SDS011;5685;52.384;13.420;2022-08-19T17:07:16;16.27;;;15.07;;
11255;SDS011;5685;52.384;13.420;2022-08-19T17:10:19;16.93;;;15.73;;
11255;SDS011;5685;52.384;13.420;2022-08-19T17:13:22;16.27;;;14.97;;
11255;SDS011;5685;52.384;13.420;2022-08-19T17:16:27;16.17;;;14.97;;
11255;SDS011;5685;52.384;13.420;2022-08-19T17:19:37;14.57;;;13.67;;
11255;SDS011;5685;52.384;13.420;2022-08-19T17:22:41;16.27;;;15.07;;
11255;SDS011;5685;52.384;13.420;2022-08-19T17:25:43;16.63;;;15.23;;
11255;SDS011;5685;52.384;13.420;2022-08-19T17:28:47;15.23;;;14.00;;
11255;SDS011;5685;52.384;13.420;2022-08-19T17:31:52;16.23;;;15.03;;
11255;SDS011;5685;52.384;13.420;2022-08-19T17:34:56;15.70;;;14.53;;
11255;SDS011;5685;52.384;13.420;2022-08-19T17:38:01;15.77;;;14.67;;
11255;SDS011;5685;52.384;13.420;2022-08-19T17:41:04;17.10;;;15.90;;
11255;SDS011;5685;52.384;13.420;2022-08-19T17:44:07;16.17;;;15.03;;
11255;SDS011;5685;52.384;13.420;2022-08-19T17:47:09;15.70;;;14.67;;
11255;SDS011;5685;52.384;13.420;2022-08-19T17:50:13;15.47;;;14.00;;
11255;SDS011;5685;52.384;13.420;2022-08-19T17:53:16;15.83;;;14.73;;
11255;SDS011;5685;52.384;13.420;2022-08-19T17:56:19;15.73;;;14.53;;
11255;SDS011;5685;52.384;13.420;2022-08-19T17:59:22;16.07;;;14.97;;